createdAt,value
2023-05-13T00:02:30.293Z,5.18
2023-05-13T00:05:40.416Z,4.90
2023-05-13T00:08:48.809Z,4.78
2023-05-13T00:11:57.092Z,5.18
2023-05-13T00:15:05.934Z,5.37
2023-05-13T00:18:14.225Z,6.47
2023-05-13T00:21:24.206Z,5.83
2023-05-13T00:24:32.471Z,6.07
2023-05-13T00:27:40.780Z,6.13
2023-05-13T00:30:49.274Z,6.40
2023-05-13T00:33:58.010Z,6.10
2023-05-13T00:37:10.147Z,6.90
2023-05-13T00:40:21.835Z,6.50
2023-05-13T00:43:30.332Z,6.27
2023-05-13T00:46:38.800Z,6.03
2023-05-13T00:49:47.185Z,6.03
2023-05-13T00:52:59.301Z,7.00
2023-05-13T00:56:08.307Z,6.40
2023-05-13T00:59:16.635Z,6.17
2023-05-13T01:02:37.693Z,6.50
2023-05-13T01:05:52.443Z,5.63
2023-05-13T01:09:07.419Z,6.30
2023-05-13T01:12:22.452Z,5.70
2023-05-13T01:15:32.892Z,6.73
2023-05-13T01:18:46.318Z,6.03
2023-05-13T01:21:56.459Z,5.53
2023-05-13T01:25:05.409Z,5.93
2023-05-13T01:28:14.817Z,6.23
2023-05-13T01:31:27.232Z,6.70
2023-05-13T01:34:37.171Z,6.63
2023-05-13T01:37:47.465Z,6.70
2023-05-13T01:40:57.345Z,6.53
2023-05-13T01:44:06.439Z,6.70
2023-05-13T01:47:15.872Z,6.87
2023-05-13T01:50:24.566Z,6.73
2023-05-13T01:53:34.773Z,7.67
2023-05-13T01:56:43.566Z,7.03
2023-05-13T01:59:53.031Z,7.03
2023-05-13T02:03:01.890Z,7.00
2023-05-13T02:06:10.644Z,6.30
2023-05-13T02:09:20.734Z,6.50
2023-05-13T02:12:29.627Z,6.40
2023-05-13T02:15:38.220Z,6.80
2023-05-13T02:18:46.612Z,6.63
2023-05-13T02:21:55.094Z,6.93
2023-05-13T02:25:05.390Z,7.50
2023-05-13T02:28:13.820Z,7.43
2023-05-13T02:31:23.192Z,6.63
2023-05-13T02:34:31.591Z,6.77
2023-05-13T02:37:40.233Z,7.17
2023-05-13T02:40:50.824Z,7.63
2023-05-13T02:43:59.171Z,7.60
2023-05-13T02:47:08.252Z,7.63
2023-05-13T02:50:16.736Z,8.03
2023-05-13T02:53:26.023Z,7.73
2023-05-13T02:56:41.685Z,7.17
2023-05-13T02:59:50.231Z,7.90
2023-05-13T03:02:59.049Z,7.50
2023-05-13T03:06:09.266Z,8.00
2023-05-13T03:09:17.741Z,7.50
2023-05-13T03:12:27.708Z,7.83
2023-05-13T03:15:36.267Z,7.37
2023-05-13T03:18:44.760Z,8.03
2023-05-13T03:21:53.693Z,7.90
2023-05-13T03:25:02.240Z,8.10
2023-05-13T03:28:18.450Z,7.63
2023-05-13T03:31:27.255Z,7.83
2023-05-13T03:34:37.220Z,7.07
2023-05-13T03:37:46.199Z,7.87
2023-05-13T03:40:55.635Z,7.40
2023-05-13T03:44:06.198Z,7.20
2023-05-13T03:47:14.620Z,8.07
2023-05-13T03:50:23.360Z,8.40
2023-05-13T03:53:33.427Z,8.43
2023-05-13T03:56:41.902Z,9.37
2023-05-13T03:59:51.633Z,8.03
2023-05-13T04:03:00.739Z,8.53
2023-05-13T04:06:09.360Z,7.63
2023-05-13T04:09:20.792Z,7.87
2023-05-13T04:12:30.931Z,8.00
2023-05-13T04:15:40.819Z,7.83
2023-05-13T04:18:49.331Z,8.20
2023-05-13T04:21:57.731Z,7.73
2023-05-13T04:25:06.941Z,7.30
2023-05-13T04:28:16.933Z,7.20
2023-05-13T04:31:27.735Z,7.07
2023-05-13T04:34:37.176Z,7.03
2023-05-13T04:37:45.868Z,6.40
2023-05-13T04:40:56.606Z,7.10
2023-05-13T04:44:13.312Z,6.53
2023-05-13T04:47:23.610Z,6.40
2023-05-13T04:50:32.088Z,6.27
2023-05-13T04:53:43.758Z,6.87
2023-05-13T04:56:52.778Z,6.33
2023-05-13T05:00:01.221Z,6.37
2023-05-13T05:03:12.577Z,6.20
2023-05-13T05:06:21.940Z,6.40
2023-05-13T05:09:31.870Z,6.20
2023-05-13T05:12:41.394Z,5.57
2023-05-13T05:15:50.097Z,5.27
2023-05-13T05:19:00.473Z,5.97
2023-05-13T05:22:09.026Z,5.40
2023-05-13T05:25:17.545Z,5.17
2023-05-13T05:28:26.100Z,4.77
2023-05-13T05:31:34.700Z,4.90
2023-05-13T05:34:45.488Z,5.07
2023-05-13T05:37:54.151Z,4.70
2023-05-13T05:41:02.753Z,5.53
2023-05-13T05:44:13.568Z,4.50
2023-05-13T05:47:22.578Z,4.47
2023-05-13T05:50:33.081Z,6.57
2023-05-13T05:53:43.619Z,3.87
2023-05-13T05:56:54.406Z,3.95
2023-05-13T06:00:03.465Z,3.88
2023-05-13T06:03:13.162Z,4.25
2023-05-13T06:06:23.091Z,4.25
2023-05-13T06:09:31.695Z,3.97
2023-05-13T06:12:40.968Z,4.10
2023-05-13T06:15:50.994Z,3.72
2023-05-13T06:18:59.450Z,3.63
2023-05-13T06:22:09.381Z,4.13
2023-05-13T06:25:17.876Z,3.47
2023-05-13T06:28:26.375Z,3.78
2023-05-13T06:31:34.751Z,4.40
2023-05-13T06:34:45.777Z,3.08
2023-05-13T06:37:55.948Z,3.50
2023-05-13T06:41:07.686Z,3.60
2023-05-13T06:44:18.541Z,3.30
2023-05-13T06:47:28.558Z,3.42
2023-05-13T06:50:37.113Z,3.30
2023-05-13T06:53:47.329Z,2.50
2023-05-13T06:57:25.191Z,2.67
2023-05-13T07:00:52.390Z,2.80
2023-05-13T07:04:02.326Z,2.47
2023-05-13T07:07:11.060Z,2.83
2023-05-13T07:10:21.616Z,2.47
2023-05-13T07:13:33.576Z,2.53
2023-05-13T07:16:48.430Z,2.67
2023-05-13T07:19:56.964Z,2.50
2023-05-13T07:23:05.712Z,2.70
2023-05-13T07:26:16.772Z,2.50
2023-05-13T07:29:27.089Z,2.80
2023-05-13T07:32:37.235Z,2.47
2023-05-13T07:35:45.734Z,2.50
2023-05-13T07:38:54.258Z,2.53
2023-05-13T07:42:04.611Z,2.70
2023-05-13T07:45:13.254Z,2.40
2023-05-13T07:48:21.724Z,2.60
2023-05-13T07:51:30.443Z,2.45
2023-05-13T07:54:41.660Z,2.40
2023-05-13T07:57:52.858Z,2.58
2023-05-13T08:01:01.314Z,2.88
2023-05-13T08:04:10.453Z,2.67
2023-05-13T08:07:19.691Z,2.30
2023-05-13T08:10:28.653Z,2.10
2023-05-13T08:13:40.737Z,2.15
2023-05-13T08:16:50.280Z,2.08
2023-05-13T08:20:00.103Z,2.10
2023-05-13T08:23:08.706Z,2.10
2023-05-13T08:26:24.117Z,2.40
2023-05-13T08:29:35.650Z,2.30
2023-05-13T08:32:44.252Z,2.30
2023-05-13T08:35:57.759Z,2.38
2023-05-13T08:39:07.388Z,2.47
2023-05-13T08:42:19.372Z,2.45
2023-05-13T08:45:31.399Z,1.85
2023-05-13T08:48:40.974Z,2.13
2023-05-13T08:51:49.628Z,2.53
2023-05-13T08:55:01.236Z,2.20
2023-05-13T08:58:09.823Z,2.20
2023-05-13T09:01:19.817Z,2.42
2023-05-13T09:04:30.862Z,2.28
2023-05-13T09:07:40.811Z,3.17
2023-05-13T09:10:49.529Z,2.22
2023-05-13T09:14:00.042Z,2.90
2023-05-13T09:17:10.685Z,2.17
2023-05-13T09:20:21.167Z,3.10
2023-05-13T09:23:30.428Z,2.50
2023-05-13T09:26:43.099Z,2.20
2023-05-13T09:30:01.051Z,2.60
2023-05-13T09:33:12.763Z,2.20
2023-05-13T09:36:21.229Z,2.42
2023-05-13T09:39:32.937Z,2.50
2023-05-13T09:42:43.665Z,2.10
2023-05-13T09:45:55.260Z,2.22
2023-05-13T09:49:06.092Z,2.33
2023-05-13T09:52:18.195Z,4.32
2023-05-13T09:55:26.588Z,3.05
2023-05-13T09:58:35.030Z,2.53
2023-05-13T10:01:45.862Z,2.13
2023-05-13T10:04:57.059Z,2.20
2023-05-13T10:08:09.413Z,2.63
2023-05-13T10:11:19.649Z,2.20
2023-05-13T10:14:28.231Z,2.35
2023-05-13T10:17:37.355Z,2.53
2023-05-13T10:21:24.757Z,2.55
2023-05-13T10:24:38.036Z,2.70
2023-05-13T10:27:48.592Z,2.50
2023-05-13T10:30:57.251Z,2.38
2023-05-13T10:34:05.711Z,2.25
2023-05-13T10:37:43.637Z,2.20
2023-05-13T10:42:06.663Z,3.83
2023-05-13T10:59:04.077Z,2.35
2023-05-13T11:02:22.920Z,11.27
2023-05-13T11:05:40.105Z,3.05
2023-05-13T11:18:27.820Z,2.28
2023-05-13T11:21:40.598Z,2.33
2023-05-13T11:25:06.505Z,2.28
2023-05-13T11:28:18.606Z,2.45
2023-05-13T11:31:30.463Z,2.13
2023-05-13T11:34:50.893Z,2.00
2023-05-13T11:38:00.714Z,2.17
2023-05-13T11:41:09.070Z,2.40
2023-05-13T11:44:19.539Z,3.42
2023-05-13T11:47:28.863Z,2.38
2023-05-13T11:50:38.878Z,2.70
2023-05-13T11:53:47.234Z,2.50
2023-05-13T11:56:55.620Z,2.88
2023-05-13T12:00:06.823Z,3.05
2023-05-13T12:03:16.435Z,2.40
2023-05-13T12:06:26.925Z,2.42
2023-05-13T12:09:35.199Z,3.67
2023-05-13T12:12:45.528Z,2.33
2023-05-13T12:15:54.402Z,2.33
2023-05-13T12:19:07.375Z,2.55
2023-05-13T12:22:17.235Z,2.72
2023-05-13T12:25:51.341Z,2.50
2023-05-13T12:29:00.771Z,2.00
2023-05-13T12:32:09.407Z,2.42
2023-05-13T12:35:17.929Z,6.05
2023-05-13T12:38:28.149Z,2.60
2023-05-13T12:41:37.806Z,2.10
2023-05-13T12:44:47.165Z,2.50
2023-05-13T12:47:57.061Z,2.97
2023-05-13T12:51:06.356Z,2.30
2023-05-13T12:54:16.156Z,2.30
2023-05-13T12:57:24.490Z,2.35
2023-05-13T13:00:32.800Z,2.30
2023-05-13T13:03:41.198Z,2.30
2023-05-13T13:06:49.608Z,2.60
2023-05-13T13:09:59.689Z,2.40
2023-05-13T13:13:08.048Z,2.90
2023-05-13T13:16:16.922Z,2.65
2023-05-13T13:19:25.559Z,2.80
2023-05-13T13:22:34.148Z,2.22
2023-05-13T13:25:44.087Z,3.53
2023-05-13T13:28:52.476Z,2.35
2023-05-13T13:32:01.036Z,2.33
2023-05-13T13:35:10.307Z,2.67
2023-05-13T13:38:18.696Z,3.08
2023-05-13T13:41:28.362Z,2.80
2023-05-13T13:44:39.504Z,4.22
2023-05-13T13:47:47.855Z,2.50
2023-05-13T13:50:56.562Z,3.85
2023-05-13T13:54:06.074Z,3.03
2023-05-13T13:57:16.677Z,4.05
2023-05-13T14:00:25.153Z,2.70
2023-05-13T14:03:33.720Z,2.55
2023-05-13T14:06:42.628Z,3.53
2023-05-13T14:09:52.487Z,2.78
2023-05-13T14:13:02.381Z,2.53
2023-05-13T14:16:10.869Z,2.80
2023-05-13T14:19:19.357Z,2.78
2023-05-13T14:22:27.949Z,3.42
2023-05-13T14:25:37.058Z,2.63
2023-05-13T14:28:47.217Z,2.72
2023-05-13T14:31:55.593Z,3.20
2023-05-13T14:35:03.989Z,2.50
2023-05-13T14:38:12.320Z,2.38
2023-05-13T14:41:21.709Z,3.85
2023-05-13T14:44:31.586Z,2.28
2023-05-13T14:47:39.946Z,2.45
2023-05-13T14:50:48.605Z,2.83
2023-05-13T14:53:57.082Z,2.75
2023-05-13T14:57:06.634Z,3.17
2023-05-13T15:00:17.361Z,2.72
2023-05-13T15:03:26.178Z,2.45
2023-05-13T15:06:36.331Z,2.30
2023-05-13T15:09:44.733Z,2.40
2023-05-13T15:12:53.141Z,2.33
2023-05-13T15:16:03.562Z,2.33
2023-05-13T15:19:12.145Z,2.40
2023-05-13T15:22:20.500Z,5.90
2023-05-13T15:25:28.818Z,2.10
2023-05-13T15:28:37.262Z,2.53
2023-05-13T15:31:47.054Z,2.47
2023-05-13T15:34:55.627Z,2.20
2023-05-13T15:38:04.500Z,2.50
2023-05-13T15:41:12.959Z,2.85
2023-05-13T15:44:22.628Z,2.60
2023-05-13T15:47:32.534Z,2.67
2023-05-13T15:50:41.074Z,2.38
2023-05-13T15:53:49.404Z,2.33
2023-05-13T15:56:59.093Z,2.88
2023-05-13T16:00:09.570Z,2.30
2023-05-13T16:03:19.313Z,2.30
2023-05-13T16:06:27.932Z,1.90
2023-05-13T16:09:36.255Z,2.10
2023-05-13T16:12:44.661Z,4.43
2023-05-13T16:15:54.409Z,2.67
2023-05-13T16:19:04.921Z,3.38
2023-05-13T16:22:27.410Z,3.05
2023-05-13T16:25:35.785Z,2.55
2023-05-13T16:28:44.439Z,2.83
2023-05-13T16:31:53.128Z,2.83
2023-05-13T16:35:03.928Z,2.38
2023-05-13T16:38:12.824Z,2.42
2023-05-13T16:41:21.192Z,3.08
2023-05-13T16:44:29.617Z,2.80
2023-05-13T16:47:38.069Z,2.28
2023-05-13T16:50:47.856Z,2.28
2023-05-13T16:53:56.542Z,3.47
2023-05-13T16:57:05.031Z,2.28
2023-05-13T17:00:14.538Z,2.70
2023-05-13T17:03:23.059Z,2.25
2023-05-13T17:06:32.769Z,3.80
2023-05-13T17:09:41.219Z,2.75
2023-05-13T17:12:49.652Z,2.22
2023-05-13T17:15:57.989Z,2.70
2023-05-13T17:19:06.664Z,2.45
2023-05-13T17:22:16.506Z,2.25
2023-05-13T17:25:24.990Z,2.25
2023-05-13T17:28:33.987Z,3.42
2023-05-13T17:31:42.733Z,3.10
2023-05-13T17:34:51.352Z,2.60
2023-05-13T17:38:01.232Z,2.70
2023-05-13T17:41:09.757Z,2.63
2023-05-13T17:44:20.016Z,2.67
2023-05-13T17:47:28.445Z,4.22
2023-05-13T17:50:36.838Z,2.70
2023-05-13T17:53:46.618Z,3.85
2023-05-13T17:56:55.070Z,3.10
2023-05-13T18:00:06.622Z,2.95
2023-05-13T18:03:16.911Z,2.72
2023-05-13T18:06:25.558Z,3.70
2023-05-13T18:09:35.631Z,2.75
2023-05-13T18:12:44.366Z,3.22
2023-05-13T18:15:53.217Z,3.40
2023-05-13T18:19:01.700Z,2.47
2023-05-13T18:22:10.900Z,2.75
2023-05-13T18:25:23.436Z,4.18
2023-05-13T18:28:31.979Z,3.75
2023-05-13T18:31:40.612Z,3.75
2023-05-13T18:34:49.241Z,3.33
2023-05-13T18:37:57.664Z,2.80
2023-05-13T18:41:07.581Z,3.88
2023-05-13T18:44:16.089Z,3.00
2023-05-13T18:47:24.711Z,3.15
2023-05-13T18:50:33.344Z,3.25
2023-05-13T18:53:43.140Z,3.28
2023-05-13T18:56:52.923Z,2.65
2023-05-13T19:00:02.223Z,5.20
2023-05-13T19:03:11.296Z,3.30
2023-05-13T19:06:20.520Z,2.97
2023-05-13T19:09:28.901Z,3.03
2023-05-13T19:12:38.770Z,4.85
2023-05-13T19:15:48.763Z,3.38
2023-05-13T19:18:57.386Z,3.38
2023-05-13T19:22:06.419Z,3.22
2023-05-13T19:25:15.106Z,3.30
2023-05-13T19:28:25.468Z,3.30
2023-05-13T19:31:34.129Z,3.10
2023-05-13T19:34:43.087Z,3.10
2023-05-13T19:37:52.019Z,4.32
2023-05-13T19:41:01.703Z,3.33
2023-05-13T19:44:11.969Z,3.05
2023-05-13T19:47:20.553Z,3.40
2023-05-13T19:50:29.204Z,2.95
2023-05-13T19:53:37.830Z,4.13
2023-05-13T19:56:46.313Z,3.15
2023-05-13T19:59:56.210Z,5.15
2023-05-13T20:03:05.646Z,3.53
2023-05-13T20:06:14.312Z,3.60
2023-05-13T20:09:22.710Z,3.60
2023-05-13T20:12:31.214Z,3.10
2023-05-13T20:15:42.317Z,3.55
2023-05-13T20:18:51.110Z,3.58
2023-05-13T20:21:59.752Z,4.30
2023-05-13T20:25:09.179Z,4.05
2023-05-13T20:28:18.329Z,4.00
2023-05-13T20:31:28.664Z,5.15
2023-05-13T20:34:37.833Z,3.20
2023-05-13T20:37:46.401Z,4.28
2023-05-13T20:40:55.129Z,3.47
2023-05-13T20:44:03.737Z,2.90
2023-05-13T20:47:14.530Z,4.82
2023-05-13T20:50:23.508Z,3.15
2023-05-13T20:53:33.593Z,3.75
2023-05-13T20:56:43.928Z,3.13
2023-05-13T20:59:52.871Z,3.83
2023-05-13T21:03:03.547Z,4.07
2023-05-13T21:06:12.806Z,3.63
2023-05-13T21:09:21.464Z,4.00
2023-05-13T21:12:30.188Z,3.90
2023-05-13T21:15:39.035Z,6.90
2023-05-13T21:18:49.570Z,4.75
2023-05-13T21:21:58.625Z,5.88
2023-05-13T21:25:08.658Z,4.78
2023-05-13T21:28:18.317Z,5.47
2023-05-13T21:31:30.080Z,4.30
2023-05-13T21:34:40.102Z,4.45
2023-05-13T21:37:49.694Z,9.20
2023-05-13T21:40:59.484Z,4.35
2023-05-13T21:44:08.127Z,3.42
2023-05-13T21:47:17.024Z,4.63
2023-05-13T21:50:27.119Z,5.15
2023-05-13T21:53:35.743Z,3.95
2023-05-13T21:56:44.618Z,4.55
2023-05-13T21:59:53.147Z,3.60
2023-05-13T22:03:02.059Z,3.67
2023-05-13T22:06:12.782Z,3.97
2023-05-13T22:09:21.668Z,3.95
2023-05-13T22:12:30.248Z,4.40
2023-05-13T22:15:39.472Z,5.45
2023-05-13T22:18:48.303Z,4.55
2023-05-13T22:21:59.370Z,4.03
2023-05-13T22:25:08.575Z,4.22
2023-05-13T22:28:17.128Z,4.35
2023-05-13T22:31:26.908Z,3.63
2023-05-13T22:34:35.566Z,4.05
2023-05-13T22:37:45.533Z,4.03
2023-05-13T22:40:54.280Z,3.63
2023-05-13T22:44:02.870Z,4.43
2023-05-13T22:47:11.639Z,4.03
2023-05-13T22:50:20.939Z,4.18
2023-05-13T22:53:31.193Z,5.40
2023-05-13T22:56:39.805Z,4.00
2023-05-13T22:59:48.526Z,3.60
2023-05-13T23:02:57.822Z,3.92
2023-05-13T23:06:06.397Z,3.75
2023-05-13T23:09:16.251Z,3.53
2023-05-13T23:12:24.744Z,3.53
2023-05-13T23:15:33.547Z,3.83
2023-05-13T23:18:42.050Z,5.47
2023-05-13T23:21:50.554Z,3.70
2023-05-13T23:25:00.658Z,3.78
2023-05-13T23:28:09.561Z,3.88
2023-05-13T23:31:18.333Z,4.57
2023-05-13T23:34:27.308Z,4.68
2023-05-13T23:37:36.662Z,4.20
2023-05-13T23:40:46.416Z,4.28
2023-05-13T23:43:55.153Z,4.72
2023-05-13T23:47:03.702Z,4.22
2023-05-13T23:50:14.051Z,4.38
2023-05-13T23:53:22.826Z,5.50
2023-05-13T23:56:32.840Z,4.22
2023-05-13T23:59:41.373Z,4.13
